Gillette Campbell County Airport
KGCC : now visible

Airfield :











YOU CAN JOIN US ON...

 
LOGIN :

Register | Disclaimer

   EN    FR    IT 

 









Legend :    VFR   Marginal VFR   IFR   Intensive IFR   Very Intensive IFR
Visi :
Ceiling :
>= 8 km
>= 3000ft
5 to 8 km
1000 to 3000 ft
1500m to 5 km
500 to 1000 ft
800 to 1500m
200 to 500 ft
< 800m
< 200 ft
Symbols :   Thunderstorms  Fog  Heavy snow  Heavy precipitations  Wind > 20 kt







- Airport Elevation : 4365 ft


KGCC - Gillette Campbell County

CURRENT METAR :
  • 162153Z AUTO 25013G20KT 10SM CLR 32/01 A2978 RMK AO2 SLP023 T03220011

EXPIRED METARs :
  • 162053Z AUTO 21007KT 10SM CLR 32/M01 A2980 RMK AO2 SLP029 T03221006 56014
  • 161953Z AUTO 24011G24KT 10SM CLR 32/M02 A2981 RMK AO2 SLP036 T03221017

TAF KGCC
Valid from the 16 at 18:00 until the 17 at 18:00 UTC


161735Z 1618/1718 22010G17KT P6SM SCT250
FM171300 20016G22KT P6SM SCT250
FM171500 21023G29KT P6SM BKN250
No reported NOTAMs for that airfield.



MET'MAP, your aeronautical weather chart ! - Copyright ORBIFLY December 2007 - Disclaimer

ORBIFLY MET'MAP TEAM :

Programming & Development : Alexandra Zaïnal
Concept & Development : Baudouin d'Aumeries
Co-Development & Prog : Marc-Olivier Méhu
Technical & hardware support : Manuel Goepfert

Contact : metmap@orbifly.com




SOURCES & CREDITS :

   NOAA       Earth
Advisory